sensor_id;sensor_type;location;lat;lon;timestamp;temperature;humidity
46488;DHT22;32202;48.780;9.204;2022-09-03T00:02:18;18.60;62.80
46488;DHT22;32202;48.780;9.204;2022-09-03T00:07:38;18.60;63.00
46488;DHT22;32202;48.780;9.204;2022-09-03T00:10:10;18.60;63.10
46488;DHT22;32202;48.780;9.204;2022-09-03T00:12:42;18.60;63.20
46488;DHT22;32202;48.780;9.204;2022-09-03T00:15:16;18.60;63.30
46488;DHT22;32202;48.780;9.204;2022-09-03T00:18:09;18.60;63.40
46488;DHT22;32202;48.780;9.204;2022-09-03T00:20:56;18.60;63.30
46488;DHT22;32202;48.780;9.204;2022-09-03T00:23:26;18.70;63.50
46488;DHT22;32202;48.780;9.204;2022-09-03T00:26:32;18.70;63.40
46488;DHT22;32202;48.780;9.204;2022-09-03T00:29:01;18.70;63.50
46488;DHT22;32202;48.780;9.204;2022-09-03T00:31:37;18.70;63.60
46488;DHT22;32202;48.780;9.204;2022-09-03T00:34:31;18.70;63.60
46488;DHT22;32202;48.780;9.204;2022-09-03T00:36:58;18.80;63.20
46488;DHT22;32202;48.780;9.204;2022-09-03T00:39:26;18.80;63.20
46488;DHT22;32202;48.780;9.204;2022-09-03T00:47:47;18.80;63.20
46488;DHT22;32202;48.780;9.204;2022-09-03T00:56:10;18.80;63.60
46488;DHT22;32202;48.780;9.204;2022-09-03T01:01:22;18.80;63.40
46488;DHT22;32202;48.780;9.204;2022-09-03T01:18:05;18.80;63.10
46488;DHT22;32202;48.780;9.204;2022-09-03T01:20:54;18.80;63.30
46488;DHT22;32202;48.780;9.204;2022-09-03T01:26:33;18.80;64.10
46488;DHT22;32202;48.780;9.204;2022-09-03T01:39:41;18.80;62.90
46488;DHT22;32202;48.780;9.204;2022-09-03T01:50:38;18.80;63.10
46488;DHT22;32202;48.780;9.204;2022-09-03T01:58:53;18.90;63.00
46488;DHT22;32202;48.780;9.204;2022-09-03T02:01:45;18.90;62.40
46488;DHT22;32202;48.780;9.204;2022-09-03T02:04:21;18.90;61.70
46488;DHT22;32202;48.780;9.204;2022-09-03T02:06:49;18.90;61.50
46488;DHT22;32202;48.780;9.204;2022-09-03T02:09:16;18.90;61.50
46488;DHT22;32202;48.780;9.204;2022-09-03T02:11:43;18.80;61.50
46488;DHT22;32202;48.780;9.204;2022-09-03T02:14:11;18.80;62.20
46488;DHT22;32202;48.780;9.204;2022-09-03T02:16:38;18.80;61.70
46488;DHT22;32202;48.780;9.204;2022-09-03T02:19:10;18.80;61.80
46488;DHT22;32202;48.780;9.204;2022-09-03T02:21:39;18.70;61.80
46488;DHT22;32202;48.780;9.204;2022-09-03T02:24:09;18.70;62.00
46488;DHT22;32202;48.780;9.204;2022-09-03T02:26:35;18.60;62.00
46488;DHT22;32202;48.780;9.204;2022-09-03T02:29:04;18.60;62.10
46488;DHT22;32202;48.780;9.204;2022-09-03T02:31:30;18.60;62.20
46488;DHT22;32202;48.780;9.204;2022-09-03T02:33:56;18.60;62.40
46488;DHT22;32202;48.780;9.204;2022-09-03T02:36:42;18.60;62.50
46488;DHT22;32202;48.780;9.204;2022-09-03T02:39:08;18.60;62.60
46488;DHT22;32202;48.780;9.204;2022-09-03T02:41:34;18.50;62.70
46488;DHT22;32202;48.780;9.204;2022-09-03T02:46:44;18.50;63.20
46488;DHT22;32202;48.780;9.204;2022-09-03T02:49:11;18.40;63.20
46488;DHT22;32202;48.780;9.204;2022-09-03T02:51:42;18.40;63.60
46488;DHT22;32202;48.780;9.204;2022-09-03T02:54:08;18.30;63.90
46488;DHT22;32202;48.780;9.204;2022-09-03T02:56:35;18.20;64.30
46488;DHT22;32202;48.780;9.204;2022-09-03T02:59:02;18.10;64.70
46488;DHT22;32202;48.780;9.204;2022-09-03T03:01:28;18.00;65.00
46488;DHT22;32202;48.780;9.204;2022-09-03T03:03:53;18.00;65.30
46488;DHT22;32202;48.780;9.204;2022-09-03T03:06:20;17.90;65.60
46488;DHT22;32202;48.780;9.204;2022-09-03T03:08:47;17.90;65.90
46488;DHT22;32202;48.780;9.204;2022-09-03T03:11:14;17.80;66.20
46488;DHT22;32202;48.780;9.204;2022-09-03T03:13:44;17.80;66.40
46488;DHT22;32202;48.780;9.204;2022-09-03T03:16:10;17.80;66.50
46488;DHT22;32202;48.780;9.204;2022-09-03T03:18:36;17.90;66.60
46488;DHT22;32202;48.780;9.204;2022-09-03T03:21:07;17.90;66.60
46488;DHT22;32202;48.780;9.204;2022-09-03T03:23:34;17.90;66.70
46488;DHT22;32202;48.780;9.204;2022-09-03T03:26:02;17.90;67.00
46488;DHT22;32202;48.780;9.204;2022-09-03T03:28:28;17.90;67.00
46488;DHT22;32202;48.780;9.204;2022-09-03T03:30:56;17.90;67.20
46488;DHT22;32202;48.780;9.204;2022-09-03T03:33:22;17.80;67.30
46488;DHT22;32202;48.780;9.204;2022-09-03T03:35:48;17.80;67.50
46488;DHT22;32202;48.780;9.204;2022-09-03T03:38:14;17.70;67.60
46488;DHT22;32202;48.780;9.204;2022-09-03T03:40:40;17.70;67.90
46488;DHT22;32202;48.780;9.204;2022-09-03T03:43:05;17.70;68.10
46488;DHT22;32202;48.780;9.204;2022-09-03T03:45:34;17.60;68.40
46488;DHT22;32202;48.780;9.204;2022-09-03T03:48:02;17.60;68.60
46488;DHT22;32202;48.780;9.204;2022-09-03T03:50:31;17.60;68.80
46488;DHT22;32202;48.780;9.204;2022-09-03T03:53:00;17.70;69.00
46488;DHT22;32202;48.780;9.204;2022-09-03T03:55:25;17.70;69.10
46488;DHT22;32202;48.780;9.204;2022-09-03T03:57:51;17.70;69.50
46488;DHT22;32202;48.780;9.204;2022-09-03T04:00:17;17.70;69.70
46488;DHT22;32202;48.780;9.204;2022-09-03T04:02:42;17.80;69.80
46488;DHT22;32202;48.780;9.204;2022-09-03T04:05:08;17.90;69.70
46488;DHT22;32202;48.780;9.204;2022-09-03T04:07:34;17.90;69.60
46488;DHT22;32202;48.780;9.204;2022-09-03T04:09:59;17.90;69.50
46488;DHT22;32202;48.780;9.204;2022-09-03T04:12:26;18.00;69.30
46488;DHT22;32202;48.780;9.204;2022-09-03T04:14:51;18.00;69.40
46488;DHT22;32202;48.780;9.204;2022-09-03T04:17:17;18.00;69.40
46488;DHT22;32202;48.780;9.204;2022-09-03T04:19:46;18.00;69.60
46488;DHT22;32202;48.780;9.204;2022-09-03T04:22:13;17.90;69.90
46488;DHT22;32202;48.780;9.204;2022-09-03T04:24:40;17.90;70.10
46488;DHT22;32202;48.780;9.204;2022-09-03T04:27:17;17.90;70.50
46488;DHT22;32202;48.780;9.204;2022-09-03T04:29:43;17.90;70.80
46488;DHT22;32202;48.780;9.204;2022-09-03T04:32:08;17.80;70.90
46488;DHT22;32202;48.780;9.204;2022-09-03T04:34:52;17.80;71.40
46488;DHT22;32202;48.780;9.204;2022-09-03T04:37:24;17.80;71.70
46488;DHT22;32202;48.780;9.204;2022-09-03T04:39:50;17.80;71.80
46488;DHT22;32202;48.780;9.204;2022-09-03T04:42:15;17.70;71.90
46488;DHT22;32202;48.780;9.204;2022-09-03T04:44:41;17.70;72.30
46488;DHT22;32202;48.780;9.204;2022-09-03T04:47:07;17.60;72.50
46488;DHT22;32202;48.780;9.204;2022-09-03T04:49:32;17.60;73.10
46488;DHT22;32202;48.780;9.204;2022-09-03T04:51:58;17.50;73.40
46488;DHT22;32202;48.780;9.204;2022-09-03T04:54:24;17.50;73.80
46488;DHT22;32202;48.780;9.204;2022-09-03T04:56:50;17.50;74.10
46488;DHT22;32202;48.780;9.204;2022-09-03T04:59:18;17.50;74.40
46488;DHT22;32202;48.780;9.204;2022-09-03T05:01:44;17.40;74.70
46488;DHT22;32202;48.780;9.204;2022-09-03T05:04:09;17.50;74.70
46488;DHT22;32202;48.780;9.204;2022-09-03T05:06:36;17.60;74.50
46488;DHT22;32202;48.780;9.204;2022-09-03T05:09:02;17.60;74.40
46488;DHT22;32202;48.780;9.204;2022-09-03T05:11:28;17.60;74.70
46488;DHT22;32202;48.780;9.204;2022-09-03T05:13:57;17.60;74.70
46488;DHT22;32202;48.780;9.204;2022-09-03T05:16:24;17.60;74.60
46488;DHT22;32202;48.780;9.204;2022-09-03T05:18:54;17.70;74.50
46488;DHT22;32202;48.780;9.204;2022-09-03T05:21:20;17.80;74.40
46488;DHT22;32202;48.780;9.204;2022-09-03T05:23:48;17.80;74.40
46488;DHT22;32202;48.780;9.204;2022-09-03T05:26:17;17.90;74.40
46488;DHT22;32202;48.780;9.204;2022-09-03T05:28:44;18.00;74.60
46488;DHT22;32202;48.780;9.204;2022-09-03T05:31:16;18.10;74.10
46488;DHT22;32202;48.780;9.204;2022-09-03T05:33:49;18.30;73.20
46488;DHT22;32202;48.780;9.204;2022-09-03T05:36:17;18.50;72.30
46488;DHT22;32202;48.780;9.204;2022-09-03T05:38:44;18.60;71.80
46488;DHT22;32202;48.780;9.204;2022-09-03T05:41:11;18.70;71.40
46488;DHT22;32202;48.780;9.204;2022-09-03T05:43:38;18.90;70.90
46488;DHT22;32202;48.780;9.204;2022-09-03T05:46:08;19.00;70.60
46488;DHT22;32202;48.780;9.204;2022-09-03T05:48:36;19.10;70.50
46488;DHT22;32202;48.780;9.204;2022-09-03T05:51:13;19.20;69.60
46488;DHT22;32202;48.780;9.204;2022-09-03T05:53:42;19.20;69.10
46488;DHT22;32202;48.780;9.204;2022-09-03T05:56:10;19.10;69.10
46488;DHT22;32202;48.780;9.204;2022-09-03T05:58:38;19.00;69.40
46488;DHT22;32202;48.780;9.204;2022-09-03T06:01:31;19.10;69.30
46488;DHT22;32202;48.780;9.204;2022-09-03T06:03:59;19.40;68.60
46488;DHT22;32202;48.780;9.204;2022-09-03T06:06:26;19.50;68.10
46488;DHT22;32202;48.780;9.204;2022-09-03T06:08:57;19.60;68.10
46488;DHT22;32202;48.780;9.204;2022-09-03T06:11:24;19.50;68.20
46488;DHT22;32202;48.780;9.204;2022-09-03T06:13:58;19.40;68.50
46488;DHT22;32202;48.780;9.204;2022-09-03T06:16:28;19.30;69.40
46488;DHT22;32202;48.780;9.204;2022-09-03T06:18:54;19.20;69.80
46488;DHT22;32202;48.780;9.204;2022-09-03T06:21:20;19.00;70.30
46488;DHT22;32202;48.780;9.204;2022-09-03T06:23:50;19.00;70.80
46488;DHT22;32202;48.780;9.204;2022-09-03T06:26:21;18.90;71.40
46488;DHT22;32202;48.780;9.204;2022-09-03T06:28:47;18.90;71.80
46488;DHT22;32202;48.780;9.204;2022-09-03T06:31:16;18.90;72.00
46488;DHT22;32202;48.780;9.204;2022-09-03T06:33:42;18.90;72.10
46488;DHT22;32202;48.780;9.204;2022-09-03T06:36:11;19.00;72.00
46488;DHT22;32202;48.780;9.204;2022-09-03T06:38:38;19.00;71.80
46488;DHT22;32202;48.780;9.204;2022-09-03T06:41:07;19.10;71.80
46488;DHT22;32202;48.780;9.204;2022-09-03T06:43:35;19.10;72.00
46488;DHT22;32202;48.780;9.204;2022-09-03T06:46:07;19.10;71.90
46488;DHT22;32202;48.780;9.204;2022-09-03T06:48:34;19.20;71.80
46488;DHT22;32202;48.780;9.204;2022-09-03T06:51:05;19.30;71.50
46488;DHT22;32202;48.780;9.204;2022-09-03T06:53:40;19.30;71.40
46488;DHT22;32202;48.780;9.204;2022-09-03T06:56:13;19.40;71.40
46488;DHT22;32202;48.780;9.204;2022-09-03T06:58:45;19.50;71.30
46488;DHT22;32202;48.780;9.204;2022-09-03T07:01:19;19.50;71.50
46488;DHT22;32202;48.780;9.204;2022-09-03T07:03:47;19.50;71.50
46488;DHT22;32202;48.780;9.204;2022-09-03T07:06:17;19.60;71.50
46488;DHT22;32202;48.780;9.204;2022-09-03T07:08:43;19.80;71.20
46488;DHT22;32202;48.780;9.204;2022-09-03T07:11:11;19.90;71.00
46488;DHT22;32202;48.780;9.204;2022-09-03T07:13:38;20.10;70.70
46488;DHT22;32202;48.780;9.204;2022-09-03T07:16:10;20.30;69.90
46488;DHT22;32202;48.780;9.204;2022-09-03T07:18:37;20.60;69.10
46488;DHT22;32202;48.780;9.204;2022-09-03T07:21:06;20.90;68.60
46488;DHT22;32202;48.780;9.204;2022-09-03T07:23:33;21.00;68.20
46488;DHT22;32202;48.780;9.204;2022-09-03T07:26:01;21.10;68.20
46488;DHT22;32202;48.780;9.204;2022-09-03T07:28:29;21.10;68.80
46488;DHT22;32202;48.780;9.204;2022-09-03T07:31:04;21.00;69.30
46488;DHT22;32202;48.780;9.204;2022-09-03T07:33:33;20.70;70.40
46488;DHT22;32202;48.780;9.204;2022-09-03T07:36:04;20.70;71.50
46488;DHT22;32202;48.780;9.204;2022-09-03T07:38:33;20.60;71.40
46488;DHT22;32202;48.780;9.204;2022-09-03T07:41:01;20.90;70.90
46488;DHT22;32202;48.780;9.204;2022-09-03T07:43:28;21.30;69.50
46488;DHT22;32202;48.780;9.204;2022-09-03T07:45:55;21.70;68.40
46488;DHT22;32202;48.780;9.204;2022-09-03T07:48:22;22.10;67.10
46488;DHT22;32202;48.780;9.204;2022-09-03T07:50:48;22.80;65.30
46488;DHT22;32202;48.780;9.204;2022-09-03T07:53:16;23.90;62.50
46488;DHT22;32202;48.780;9.204;2022-09-03T07:55:44;25.00;59.60
46488;DHT22;32202;48.780;9.204;2022-09-03T07:58:11;25.60;58.00
46488;DHT22;32202;48.780;9.204;2022-09-03T08:00:37;25.90;57.30
46488;DHT22;32202;48.780;9.204;2022-09-03T08:03:03;26.20;56.30
46488;DHT22;32202;48.780;9.204;2022-09-03T08:05:33;26.40;55.60
46488;DHT22;32202;48.780;9.204;2022-09-03T08:08:01;26.30;55.50
46488;DHT22;32202;48.780;9.204;2022-09-03T08:10:27;26.10;55.90
46488;DHT22;32202;48.780;9.204;2022-09-03T08:12:55;25.80;56.40
46488;DHT22;32202;48.780;9.204;2022-09-03T08:15:21;25.60;57.10
46488;DHT22;32202;48.780;9.204;2022-09-03T08:17:46;25.40;57.40
46488;DHT22;32202;48.780;9.204;2022-09-03T08:20:12;25.40;57.40
46488;DHT22;32202;48.780;9.204;2022-09-03T08:22:37;25.30;57.70
46488;DHT22;32202;48.780;9.204;2022-09-03T08:25:03;25.50;57.30
46488;DHT22;32202;48.780;9.204;2022-09-03T08:27:30;26.00;55.40
46488;DHT22;32202;48.780;9.204;2022-09-03T08:29:56;26.80;53.60
46488;DHT22;32202;48.780;9.204;2022-09-03T08:32:21;27.90;51.90
46488;DHT22;32202;48.780;9.204;2022-09-03T08:34:47;29.10;49.40
46488;DHT22;32202;48.780;9.204;2022-09-03T08:37:12;31.20;46.70
46488;DHT22;32202;48.780;9.204;2022-09-03T08:39:38;34.20;42.80
46488;DHT22;32202;48.780;9.204;2022-09-03T08:44:56;39.40;37.10
46488;DHT22;32202;48.780;9.204;2022-09-03T08:47:32;40.40;35.80
46488;DHT22;32202;48.780;9.204;2022-09-03T08:50:26;39.80;35.70
46488;DHT22;32202;48.780;9.204;2022-09-03T08:53:16;39.60;35.90
46488;DHT22;32202;48.780;9.204;2022-09-03T08:58:25;41.10;34.90
46488;DHT22;32202;48.780;9.204;2022-09-03T09:01:06;41.40;34.50
46488;DHT22;32202;48.780;9.204;2022-09-03T09:14:38;33.70;41.00
46488;DHT22;32202;48.780;9.204;2022-09-03T09:22:48;30.70;44.70
46488;DHT22;32202;48.780;9.204;2022-09-03T09:25:18;30.00;46.10
46488;DHT22;32202;48.780;9.204;2022-09-03T09:27:53;29.40;46.80
46488;DHT22;32202;48.780;9.204;2022-09-03T09:30:22;28.80;47.80
46488;DHT22;32202;48.780;9.204;2022-09-03T09:32:47;28.30;48.70
46488;DHT22;32202;48.780;9.204;2022-09-03T09:35:14;28.00;49.80
46488;DHT22;32202;48.780;9.204;2022-09-03T09:38:06;28.30;50.00
46488;DHT22;32202;48.780;9.204;2022-09-03T09:40:34;31.00;46.40
46488;DHT22;32202;48.780;9.204;2022-09-03T09:43:17;33.20;43.70
46488;DHT22;32202;48.780;9.204;2022-09-03T09:45:47;36.30;40.20
46488;DHT22;32202;48.780;9.204;2022-09-03T09:48:30;39.50;37.00
46488;DHT22;32202;48.780;9.204;2022-09-03T09:51:19;41.60;34.90
46488;DHT22;32202;48.780;9.204;2022-09-03T09:53:45;42.80;33.70
46488;DHT22;32202;48.780;9.204;2022-09-03T09:56:25;44.00;32.90
46488;DHT22;32202;48.780;9.204;2022-09-03T09:59:04;45.80;31.60
46488;DHT22;32202;48.780;9.204;2022-09-03T10:01:30;45.50;31.40
46488;DHT22;32202;48.780;9.204;2022-09-03T10:03:59;43.90;32.20
46488;DHT22;32202;48.780;9.204;2022-09-03T10:06:32;42.40;33.10
46488;DHT22;32202;48.780;9.204;2022-09-03T10:09:22;42.00;33.20
46488;DHT22;32202;48.780;9.204;2022-09-03T10:12:08;41.10;33.60
46488;DHT22;32202;48.780;9.204;2022-09-03T10:14:49;39.90;34.70
46488;DHT22;32202;48.780;9.204;2022-09-03T10:17:42;38.50;35.80
46488;DHT22;32202;48.780;9.204;2022-09-03T10:28:20;36.10;37.80
46488;DHT22;32202;48.780;9.204;2022-09-03T10:33:40;35.00;39.20
46488;DHT22;32202;48.780;9.204;2022-09-03T10:36:27;35.00;39.20
46488;DHT22;32202;48.780;9.204;2022-09-03T10:39:05;34.80;39.00
46488;DHT22;32202;48.780;9.204;2022-09-03T10:41:57;34.40;39.70
46488;DHT22;32202;48.780;9.204;2022-09-03T10:44:47;34.30;39.60
46488;DHT22;32202;48.780;9.204;2022-09-03T10:50:25;33.80;40.10
46488;DHT22;32202;48.780;9.204;2022-09-03T11:01:36;36.00;38.20
46488;DHT22;32202;48.780;9.204;2022-09-03T11:04:11;36.60;37.50
46488;DHT22;32202;48.780;9.204;2022-09-03T11:06:53;36.60;37.50
46488;DHT22;32202;48.780;9.204;2022-09-03T11:09:25;36.40;37.70
46488;DHT22;32202;48.780;9.204;2022-09-03T11:11:58;35.50;38.10
46488;DHT22;32202;48.780;9.204;2022-09-03T11:14:38;34.40;39.60
46488;DHT22;32202;48.780;9.204;2022-09-03T11:17:06;33.70;40.40
46488;DHT22;32202;48.780;9.204;2022-09-03T11:19:40;32.90;41.00
46488;DHT22;32202;48.780;9.204;2022-09-03T11:22:09;31.80;42.60
46488;DHT22;32202;48.780;9.204;2022-09-03T11:24:38;31.10;43.60
46488;DHT22;32202;48.780;9.204;2022-09-03T11:29:49;30.20;45.00
46488;DHT22;32202;48.780;9.204;2022-09-03T11:32:21;29.70;45.50
46488;DHT22;32202;48.780;9.204;2022-09-03T11:34:50;29.50;46.30
46488;DHT22;32202;48.780;9.204;2022-09-03T11:42:33;28.60;47.60
46488;DHT22;32202;48.780;9.204;2022-09-03T11:45:22;28.40;48.20
46488;DHT22;32202;48.780;9.204;2022-09-03T11:47:49;28.20;48.80
46488;DHT22;32202;48.780;9.204;2022-09-03T11:50:24;27.90;49.20
46488;DHT22;32202;48.780;9.204;2022-09-03T11:58:34;26.40;52.50
46488;DHT22;32202;48.780;9.204;2022-09-03T12:01:02;26.10;52.90
46488;DHT22;32202;48.780;9.204;2022-09-03T12:03:52;25.80;53.90
46488;DHT22;32202;48.780;9.204;2022-09-03T12:12:31;24.90;56.90
46488;DHT22;32202;48.780;9.204;2022-09-03T12:19:44;23.90;59.60
46488;DHT22;32202;48.780;9.204;2022-09-03T12:22:13;23.80;59.90
46488;DHT22;32202;48.780;9.204;2022-09-03T12:24:39;23.80;60.90
46488;DHT22;32202;48.780;9.204;2022-09-03T12:27:14;23.70;62.20
46488;DHT22;32202;48.780;9.204;2022-09-03T12:29:53;23.50;62.90
46488;DHT22;32202;48.780;9.204;2022-09-03T12:32:28;23.40;64.40
46488;DHT22;32202;48.780;9.204;2022-09-03T12:34:57;23.30;65.70
46488;DHT22;32202;48.780;9.204;2022-09-03T12:37:25;23.00;68.90
46488;DHT22;32202;48.780;9.204;2022-09-03T12:39:55;22.50;72.10
46488;DHT22;32202;48.780;9.204;2022-09-03T12:42:29;22.10;75.20
46488;DHT22;32202;48.780;9.204;2022-09-03T12:45:04;22.00;77.10
46488;DHT22;32202;48.780;9.204;2022-09-03T12:47:37;22.00;79.70
46488;DHT22;32202;48.780;9.204;2022-09-03T12:50:10;21.90;82.20
46488;DHT22;32202;48.780;9.204;2022-09-03T12:52:58;21.80;84.40
46488;DHT22;32202;48.780;9.204;2022-09-03T12:55:45;21.60;86.60
46488;DHT22;32202;48.780;9.204;2022-09-03T12:58:18;21.60;87.20
46488;DHT22;32202;48.780;9.204;2022-09-03T13:01:02;21.50;89.10
46488;DHT22;32202;48.780;9.204;2022-09-03T13:03:30;21.30;89.70
46488;DHT22;32202;48.780;9.204;2022-09-03T13:06:00;21.20;91.20
46488;DHT22;32202;48.780;9.204;2022-09-03T13:08:32;21.10;92.40
46488;DHT22;32202;48.780;9.204;2022-09-03T13:11:02;21.10;93.40
46488;DHT22;32202;48.780;9.204;2022-09-03T13:13:31;21.20;93.00
46488;DHT22;32202;48.780;9.204;2022-09-03T13:16:34;21.20;93.20
46488;DHT22;32202;48.780;9.204;2022-09-03T13:30:03;21.20;95.20
46488;DHT22;32202;48.780;9.204;2022-09-03T13:32:50;21.20;95.60
46488;DHT22;32202;48.780;9.204;2022-09-03T13:38:38;21.80;96.20
46488;DHT22;32202;48.780;9.204;2022-09-03T13:41:18;22.50;94.10
46488;DHT22;32202;48.780;9.204;2022-09-03T13:44:10;23.20;89.70
46488;DHT22;32202;48.780;9.204;2022-09-03T13:46:58;23.50;84.00
46488;DHT22;32202;48.780;9.204;2022-09-03T13:49:46;24.40;81.40
46488;DHT22;32202;48.780;9.204;2022-09-03T13:55:46;29.40;64.70
46488;DHT22;32202;48.780;9.204;2022-09-03T13:58:27;30.00;56.50
46488;DHT22;32202;48.780;9.204;2022-09-03T14:01:12;29.00;57.20
46488;DHT22;32202;48.780;9.204;2022-09-03T14:03:51;27.90;58.90
46488;DHT22;32202;48.780;9.204;2022-09-03T14:06:40;27.20;61.10
46488;DHT22;32202;48.780;9.204;2022-09-03T14:09:26;26.90;61.60
46488;DHT22;32202;48.780;9.204;2022-09-03T14:20:27;25.60;65.80
46488;DHT22;32202;48.780;9.204;2022-09-03T14:23:06;25.00;67.90
46488;DHT22;32202;48.780;9.204;2022-09-03T14:25:34;25.10;68.90
46488;DHT22;32202;48.780;9.204;2022-09-03T14:31:11;26.30;65.80
46488;DHT22;32202;48.780;9.204;2022-09-03T14:33:49;25.90;66.30
46488;DHT22;32202;48.780;9.204;2022-09-03T14:48:07;23.80;72.70
46488;DHT22;32202;48.780;9.204;2022-09-03T14:50:50;23.40;75.90
46488;DHT22;32202;48.780;9.204;2022-09-03T15:01:51;23.40;78.20
46488;DHT22;32202;48.780;9.204;2022-09-03T15:04:49;23.30;78.90
46488;DHT22;32202;48.780;9.204;2022-09-03T15:07:29;23.40;79.60
46488;DHT22;32202;48.780;9.204;2022-09-03T15:12:36;23.80;75.80
46488;DHT22;32202;48.780;9.204;2022-09-03T15:15:12;24.00;75.40
46488;DHT22;32202;48.780;9.204;2022-09-03T15:18:11;24.20;73.00
46488;DHT22;32202;48.780;9.204;2022-09-03T15:26:36;24.70;69.00
46488;DHT22;32202;48.780;9.204;2022-09-03T15:31:51;25.10;68.90
46488;DHT22;32202;48.780;9.204;2022-09-03T15:34:39;25.10;67.50
46488;DHT22;32202;48.780;9.204;2022-09-03T15:37:16;25.10;67.90
46488;DHT22;32202;48.780;9.204;2022-09-03T15:39:44;24.90;68.20
46488;DHT22;32202;48.780;9.204;2022-09-03T15:42:22;25.00;69.60
46488;DHT22;32202;48.780;9.204;2022-09-03T15:44:53;25.10;70.20
46488;DHT22;32202;48.780;9.204;2022-09-03T15:50:08;25.40;68.80
46488;DHT22;32202;48.780;9.204;2022-09-03T15:52:58;25.40;68.60
46488;DHT22;32202;48.780;9.204;2022-09-03T15:55:29;25.20;69.10
46488;DHT22;32202;48.780;9.204;2022-09-03T15:58:03;25.00;69.90
46488;DHT22;32202;48.780;9.204;2022-09-03T16:03:52;24.50;72.00
46488;DHT22;32202;48.780;9.204;2022-09-03T16:06:35;24.10;73.80
46488;DHT22;32202;48.780;9.204;2022-09-03T16:09:26;23.90;75.00
46488;DHT22;32202;48.780;9.204;2022-09-03T16:14:59;23.60;76.90
46488;DHT22;32202;48.780;9.204;2022-09-03T16:17:35;23.60;77.90
46488;DHT22;32202;48.780;9.204;2022-09-03T16:20:16;23.50;78.00
46488;DHT22;32202;48.780;9.204;2022-09-03T16:22:50;23.60;78.10
46488;DHT22;32202;48.780;9.204;2022-09-03T16:25:28;23.50;78.50
46488;DHT22;32202;48.780;9.204;2022-09-03T16:28:15;23.30;79.60
46488;DHT22;32202;48.780;9.204;2022-09-03T16:30:51;23.20;80.20
46488;DHT22;32202;48.780;9.204;2022-09-03T16:38:56;23.10;81.30
46488;DHT22;32202;48.780;9.204;2022-09-03T16:41:33;23.00;81.80
46488;DHT22;32202;48.780;9.204;2022-09-03T16:58:56;22.80;83.00
46488;DHT22;32202;48.780;9.204;2022-09-03T17:10:11;22.80;83.10
46488;DHT22;32202;48.780;9.204;2022-09-03T17:13:53;22.80;82.80
46488;DHT22;32202;48.780;9.204;2022-09-03T17:16:09;22.70;83.40
46488;DHT22;32202;48.780;9.204;2022-09-03T17:21:25;22.60;83.20
46488;DHT22;32202;48.780;9.204;2022-09-03T17:24:14;22.60;83.10
46488;DHT22;32202;48.780;9.204;2022-09-03T17:35:17;22.20;86.20
46488;DHT22;32202;48.780;9.204;2022-09-03T17:43:29;21.90;89.60
46488;DHT22;32202;48.780;9.204;2022-09-03T17:46:23;21.80;89.80
46488;DHT22;32202;48.780;9.204;2022-09-03T17:48:52;21.60;90.60
46488;DHT22;32202;48.780;9.204;2022-09-03T17:51:36;21.40;91.80
46488;DHT22;32202;48.780;9.204;2022-09-03T18:02:31;21.10;94.80
46488;DHT22;32202;48.780;9.204;2022-09-03T18:05:22;20.90;96.50
46488;DHT22;32202;48.780;9.204;2022-09-03T18:08:18;20.90;97.20
46488;DHT22;32202;48.780;9.204;2022-09-03T18:16:32;20.70;98.40
46488;DHT22;32202;48.780;9.204;2022-09-03T18:19:09;20.50;99.00
46488;DHT22;32202;48.780;9.204;2022-09-03T18:21:45;20.40;99.30
46488;DHT22;32202;48.780;9.204;2022-09-03T18:24:43;20.40;99.60
46488;DHT22;32202;48.780;9.204;2022-09-03T18:27:50;20.30;99.90
46488;DHT22;32202;48.780;9.204;2022-09-03T18:30:37;20.20;99.90
46488;DHT22;32202;48.780;9.204;2022-09-03T18:33:25;20.10;99.90
46488;DHT22;32202;48.780;9.204;2022-09-03T18:36:11;20.00;99.90
46488;DHT22;32202;48.780;9.204;2022-09-03T18:42:23;19.90;99.90
46488;DHT22;32202;48.780;9.204;2022-09-03T18:45:34;19.70;99.90
46488;DHT22;32202;48.780;9.204;2022-09-03T18:51:30;19.60;99.90
46488;DHT22;32202;48.780;9.204;2022-09-03T18:54:20;19.50;99.90
46488;DHT22;32202;48.780;9.204;2022-09-03T18:57:31;19.50;99.90
46488;DHT22;32202;48.780;9.204;2022-09-03T19:00:18;19.40;99.90
46488;DHT22;32202;48.780;9.204;2022-09-03T19:03:27;19.40;99.90
46488;DHT22;32202;48.780;9.204;2022-09-03T19:13:58;19.40;99.90
46488;DHT22;32202;48.780;9.204;2022-09-03T19:16:45;19.40;99.90
46488;DHT22;32202;48.780;9.204;2022-09-03T19:20:05;19.40;99.90
46488;DHT22;32202;48.780;9.204;2022-09-03T19:22:47;19.40;99.90
46488;DHT22;32202;48.780;9.204;2022-09-03T19:25:31;19.40;99.90
46488;DHT22;32202;48.780;9.204;2022-09-03T19:28:24;19.40;99.90
46488;DHT22;32202;48.780;9.204;2022-09-03T19:31:40;19.40;99.90
46488;DHT22;32202;48.780;9.204;2022-09-03T19:46:59;19.30;99.90
46488;DHT22;32202;48.780;9.204;2022-09-03T19:50:15;19.20;99.90
46488;DHT22;32202;48.780;9.204;2022-09-03T19:53:06;19.10;99.90
46488;DHT22;32202;48.780;9.204;2022-09-03T19:55:54;19.00;99.90
46488;DHT22;32202;48.780;9.204;2022-09-03T19:59:00;18.90;99.90
46488;DHT22;32202;48.780;9.204;2022-09-03T20:01:46;18.90;99.90
46488;DHT22;32202;48.780;9.204;2022-09-03T20:04:36;18.90;99.90
46488;DHT22;32202;48.780;9.204;2022-09-03T20:07:22;18.90;99.90
46488;DHT22;32202;48.780;9.204;2022-09-03T20:10:10;18.80;99.90
46488;DHT22;32202;48.780;9.204;2022-09-03T20:13:08;18.80;99.90
46488;DHT22;32202;48.780;9.204;2022-09-03T20:18:29;18.80;99.90
46488;DHT22;32202;48.780;9.204;2022-09-03T20:21:13;18.80;99.90
46488;DHT22;32202;48.780;9.204;2022-09-03T20:26:57;18.90;99.90
46488;DHT22;32202;48.780;9.204;2022-09-03T20:29:40;18.90;99.90
46488;DHT22;32202;48.780;9.204;2022-09-03T20:32:31;18.90;99.90
46488;DHT22;32202;48.780;9.204;2022-09-03T20:35:43;18.90;99.90
46488;DHT22;32202;48.780;9.204;2022-09-03T20:43:26;19.00;99.90
46488;DHT22;32202;48.780;9.204;2022-09-03T20:51:34;18.80;99.90
46488;DHT22;32202;48.780;9.204;2022-09-03T20:55:07;18.70;99.90
46488;DHT22;32202;48.780;9.204;2022-09-03T20:57:27;18.70;99.90
46488;DHT22;32202;48.780;9.204;2022-09-03T21:00:14;18.70;99.90
46488;DHT22;32202;48.780;9.204;2022-09-03T21:02:57;18.70;99.90
46488;DHT22;32202;48.780;9.204;2022-09-03T21:05:30;18.70;99.90
46488;DHT22;32202;48.780;9.204;2022-09-03T21:11:37;18.70;99.90
46488;DHT22;32202;48.780;9.204;2022-09-03T21:20:29;18.70;99.90
46488;DHT22;32202;48.780;9.204;2022-09-03T21:23:21;18.80;99.90
46488;DHT22;32202;48.780;9.204;2022-09-03T21:26:12;18.80;99.90
46488;DHT22;32202;48.780;9.204;2022-09-03T21:29:00;18.80;99.90
46488;DHT22;32202;48.780;9.204;2022-09-03T21:34:40;18.80;99.90
46488;DHT22;32202;48.780;9.204;2022-09-03T21:37:09;18.80;99.90